sensor_id;sensor_type;location;lat;lon;timestamp;pressure;altitude;pressure_sealevel;temperature;humidity
51876;BME280;34054;52.100;5.116;2023-07-02T00:00:20;100508.81;;;18.71;100.00
51876;BME280;34054;52.100;5.116;2023-07-02T00:00:52;100504.78;;;18.68;100.00
51876;BME280;34054;52.100;5.116;2023-07-02T00:01:26;100510.91;;;18.65;100.00
51876;BME280;34054;52.100;5.116;2023-07-02T00:01:58;100506.06;;;18.62;100.00
51876;BME280;34054;52.100;5.116;2023-07-02T00:02:30;100513.66;;;18.65;100.00
51876;BME280;34054;52.100;5.116;2023-07-02T00:03:02;100507.97;;;18.61;100.00
51876;BME280;34054;52.100;5.116;2023-07-02T00:03:35;100507.81;;;18.58;100.00
51876;BME280;34054;52.100;5.116;2023-07-02T00:04:08;100503.94;;;18.59;100.00
51876;BME280;34054;52.100;5.116;2023-07-02T00:04:40;100506.84;;;18.54;100.00
51876;BME280;34054;52.100;5.116;2023-07-02T00:05:13;100508.28;;;18.51;100.00
51876;BME280;34054;52.100;5.116;2023-07-02T00:05:45;100502.97;;;18.55;100.00
51876;BME280;34054;52.100;5.116;2023-07-02T00:06:16;100508.28;;;18.51;100.00
51876;BME280;34054;52.100;5.116;2023-07-02T00:06:49;100511.50;;;18.53;100.00
51876;BME280;34054;52.100;5.116;2023-07-02T00:07:21;100513.97;;;18.55;100.00
51876;BME280;34054;52.100;5.116;2023-07-02T00:07:52;100515.88;;;18.54;100.00
51876;BME280;34054;52.100;5.116;2023-07-02T00:08:25;100518.13;;;18.52;100.00
51876;BME280;34054;52.100;5.116;2023-07-02T00:08:57;100526.75;;;18.59;100.00
51876;BME280;34054;52.100;5.116;2023-07-02T00:09:30;100515.56;;;18.56;100.00
51876;BME280;34054;52.100;5.116;2023-07-02T00:10:01;100524.00;;;18.59;100.00
51876;BME280;34054;52.100;5.116;2023-07-02T00:10:34;100522.06;;;18.60;100.00
51876;BME280;34054;52.100;5.116;2023-07-02T00:11:06;100525.59;;;18.60;100.00
51876;BME280;34054;52.100;5.116;2023-07-02T00:11:39;100518.63;;;18.54;100.00
51876;BME280;34054;52.100;5.116;2023-07-02T00:12:11;100526.25;;;18.57;100.00
51876;BME280;34054;52.100;5.116;2023-07-02T00:12:45;100524.28;;;18.49;100.00
51876;BME280;34054;52.100;5.116;2023-07-02T00:13:17;100528.16;;;18.48;100.00
51876;BME280;34054;52.100;5.116;2023-07-02T00:13:49;100525.38;;;18.39;100.00
51876;BME280;34054;52.100;5.116;2023-07-02T00:14:21;100510.78;;;18.30;100.00
51876;BME280;34054;52.100;5.116;2023-07-02T00:14:53;100521.66;;;18.35;100.00
51876;BME280;34054;52.100;5.116;2023-07-02T00:15:25;100530.06;;;18.39;100.00
51876;BME280;34054;52.100;5.116;2023-07-02T00:15:57;100515.72;;;18.10;100.00
51876;BME280;34054;52.100;5.116;2023-07-02T00:16:29;100530.25;;;18.11;100.00
51876;BME280;34054;52.100;5.116;2023-07-02T00:17:01;100519.25;;;18.02;100.00
51876;BME280;34054;52.100;5.116;2023-07-02T00:17:34;100524.59;;;18.07;100.00
51876;BME280;34054;52.100;5.116;2023-07-02T00:18:10;100528.00;;;18.04;100.00
51876;BME280;34054;52.100;5.116;2023-07-02T00:18:47;100521.72;;;18.12;100.00
51876;BME280;34054;52.100;5.116;2023-07-02T00:19:23;100515.56;;;18.07;100.00
51876;BME280;34054;52.100;5.116;2023-07-02T00:19:57;100517.53;;;18.15;100.00
51876;BME280;34054;52.100;5.116;2023-07-02T00:20:37;100524.50;;;18.21;100.00
51876;BME280;34054;52.100;5.116;2023-07-02T00:21:09;100525.97;;;18.27;100.00
51876;BME280;34054;52.100;5.116;2023-07-02T00:21:44;100525.78;;;18.24;100.00
51876;BME280;34054;52.100;5.116;2023-07-02T00:22:16;100520.00;;;18.25;100.00
51876;BME280;34054;52.100;5.116;2023-07-02T00:22:48;100524.84;;;18.28;100.00
51876;BME280;34054;52.100;5.116;2023-07-02T00:23:21;100524.84;;;18.28;100.00
51876;BME280;34054;52.100;5.116;2023-07-02T00:23:53;100528.88;;;18.22;100.00
51876;BME280;34054;52.100;5.116;2023-07-02T00:24:24;100522.09;;;18.28;100.00
51876;BME280;34054;52.100;5.116;2023-07-02T00:24:57;100522.59;;;18.30;100.00
51876;BME280;34054;52.100;5.116;2023-07-02T00:25:30;100523.41;;;18.31;100.00
51876;BME280;34054;52.100;5.116;2023-07-02T00:26:02;100522.75;;;18.25;100.00
51876;BME280;34054;52.100;5.116;2023-07-02T00:26:33;100520.75;;;18.17;100.00
51876;BME280;34054;52.100;5.116;2023-07-02T00:27:06;100527.41;;;18.16;100.00
51876;BME280;34054;52.100;5.116;2023-07-02T00:27:37;100528.53;;;18.15;100.00
51876;BME280;34054;52.100;5.116;2023-07-02T00:28:09;100527.69;;;18.14;100.00
51876;BME280;34054;52.100;5.116;2023-07-02T00:28:41;100534.50;;;18.17;100.00
51876;BME280;34054;52.100;5.116;2023-07-02T00:29:14;100524.66;;;18.16;100.00
51876;BME280;34054;52.100;5.116;2023-07-02T00:29:45;100523.19;;;18.18;100.00
51876;BME280;34054;52.100;5.116;2023-07-02T00:30:17;100529.81;;;18.17;100.00
51876;BME280;34054;52.100;5.116;2023-07-02T00:30:50;100524.50;;;18.21;100.00
51876;BME280;34054;52.100;5.116;2023-07-02T00:31:21;100522.88;;;18.20;100.00
51876;BME280;34054;52.100;5.116;2023-07-02T00:31:53;100529.00;;;18.17;100.00
51876;BME280;34054;52.100;5.116;2023-07-02T00:32:26;100525.09;;;18.09;100.00
51876;BME280;34054;52.100;5.116;2023-07-02T00:32:58;100525.72;;;18.06;100.00
51876;BME280;34054;52.100;5.116;2023-07-02T00:33:31;100526.97;;;18.00;100.00
51876;BME280;34054;52.100;5.116;2023-07-02T00:34:04;100528.09;;;17.99;100.00
51876;BME280;34054;52.100;5.116;2023-07-02T00:34:35;100525.56;;;17.88;100.00
51876;BME280;34054;52.100;5.116;2023-07-02T00:35:07;100525.91;;;17.87;100.00
51876;BME280;34054;52.100;5.116;2023-07-02T00:35:40;100525.56;;;17.88;100.00
51876;BME280;34054;52.100;5.116;2023-07-02T00:36:12;100527.53;;;17.88;100.00
51876;BME280;34054;52.100;5.116;2023-07-02T00:36:46;100526.25;;;17.94;100.00
51876;BME280;34054;52.100;5.116;2023-07-02T00:37:18;100535.63;;;17.93;100.00
51876;BME280;34054;52.100;5.116;2023-07-02T00:37:50;100529.34;;;17.93;100.00
51876;BME280;34054;52.100;5.116;2023-07-02T00:38:22;100509.59;;;17.90;100.00
51876;BME280;34054;52.100;5.116;2023-07-02T00:38:55;100521.31;;;17.96;100.00
51876;BME280;34054;52.100;5.116;2023-07-02T00:39:27;100524.63;;;17.93;100.00
51876;BME280;34054;52.100;5.116;2023-07-02T00:40:00;100528.22;;;17.94;100.00
51876;BME280;34054;52.100;5.116;2023-07-02T00:40:31;100520.47;;;17.96;100.00
51876;BME280;34054;52.100;5.116;2023-07-02T00:41:04;100525.69;;;17.97;100.00
51876;BME280;34054;52.100;5.116;2023-07-02T00:41:36;100528.72;;;17.96;100.00
51876;BME280;34054;52.100;5.116;2023-07-02T00:42:07;100531.16;;;17.97;100.00
51876;BME280;34054;52.100;5.116;2023-07-02T00:42:42;100530.84;;;17.99;100.00
51876;BME280;34054;52.100;5.116;2023-07-02T00:43:13;100523.91;;;18.01;100.00
51876;BME280;34054;52.100;5.116;2023-07-02T00:43:45;100526.84;;;18.05;100.00
51876;BME280;34054;52.100;5.116;2023-07-02T00:44:18;100533.59;;;17.99;100.00
51876;BME280;34054;52.100;5.116;2023-07-02T00:44:49;100531.75;;;17.94;100.00
51876;BME280;34054;52.100;5.116;2023-07-02T00:45:23;100533.81;;;17.88;100.00
51876;BME280;34054;52.100;5.116;2023-07-02T00:45:57;100528.97;;;17.85;100.00
51876;BME280;34054;52.100;5.116;2023-07-02T00:46:30;100535.44;;;17.89;100.00
51876;BME280;34054;52.100;5.116;2023-07-02T00:47:02;100529.16;;;17.89;100.00
51876;BME280;34054;52.100;5.116;2023-07-02T00:47:35;100529.44;;;17.87;100.00
51876;BME280;34054;52.100;5.116;2023-07-02T00:48:07;100531.41;;;17.87;100.00
51876;BME280;34054;52.100;5.116;2023-07-02T00:48:39;100525.28;;;17.90;100.00
51876;BME280;34054;52.100;5.116;2023-07-02T00:49:12;100535.34;;;17.95;100.00
51876;BME280;34054;52.100;5.116;2023-07-02T00:49:44;100533.59;;;17.99;100.00
51876;BME280;34054;52.100;5.116;2023-07-02T00:50:16;100534.28;;;18.04;100.00
51876;BME280;34054;52.100;5.116;2023-07-02T00:50:48;100538.75;;;18.00;100.00
51876;BME280;34054;52.100;5.116;2023-07-02T00:51:21;100528.09;;;17.99;100.00
51876;BME280;34054;52.100;5.116;2023-07-02T00:51:55;100531.56;;;17.90;100.00
51876;BME280;34054;52.100;5.116;2023-07-02T00:52:27;100535.84;;;17.97;100.00
51876;BME280;34054;52.100;5.116;2023-07-02T00:52:59;100538.28;;;17.98;100.00
51876;BME280;34054;52.100;5.116;2023-07-02T00:53:32;100535.16;;;17.91;100.00
51876;BME280;34054;52.100;5.116;2023-07-02T00:54:03;100540.94;;;17.89;100.00
51876;BME280;34054;52.100;5.116;2023-07-02T00:54:36;100524.78;;;17.88;100.00
51876;BME280;34054;52.100;5.116;2023-07-02T00:55:09;100538.88;;;17.95;100.00
51876;BME280;34054;52.100;5.116;2023-07-02T00:55:42;100539.03;;;17.90;100.00
51876;BME280;34054;52.100;5.116;2023-07-02T00:56:14;100541.25;;;17.88;100.00
51876;BME280;34054;52.100;5.116;2023-07-02T00:56:47;100543.50;;;17.86;100.00
51876;BME280;34054;52.100;5.116;2023-07-02T00:57:18;100540.41;;;17.79;100.00
51876;BME280;34054;52.100;5.116;2023-07-02T00:57:51;100545.72;;;17.75;100.00
51876;BME280;34054;52.100;5.116;2023-07-02T00:58:23;100544.09;;;17.74;100.00
51876;BME280;34054;52.100;5.116;2023-07-02T00:58:55;100542.44;;;17.73;100.00
51876;BME280;34054;52.100;5.116;2023-07-02T00:59:29;100540.34;;;17.70;100.00
51876;BME280;34054;52.100;5.116;2023-07-02T01:00:02;100538.09;;;17.72;100.00
51876;BME280;34054;52.100;5.116;2023-07-02T01:00:34;100548.63;;;17.79;100.00
51876;BME280;34054;52.100;5.116;2023-07-02T01:01:07;100539.66;;;17.64;100.00
51876;BME280;34054;52.100;5.116;2023-07-02T01:01:40;100539.75;;;17.59;100.00
51876;BME280;34054;52.100;5.116;2023-07-02T01:02:13;100534.97;;;17.65;100.00
51876;BME280;34054;52.100;5.116;2023-07-02T01:02:53;100546.13;;;17.68;100.00
51876;BME280;34054;52.100;5.116;2023-07-02T01:03:28;100539.34;;;17.66;100.00
51876;BME280;34054;52.100;5.116;2023-07-02T01:04:02;100547.63;;;17.74;100.00
51876;BME280;34054;52.100;5.116;2023-07-02T01:04:37;100544.25;;;17.78;100.00
51876;BME280;34054;52.100;5.116;2023-07-02T01:05:09;100539.78;;;17.82;100.00
51876;BME280;34054;52.100;5.116;2023-07-02T01:05:40;100545.88;;;17.79;100.00
51876;BME280;34054;52.100;5.116;2023-07-02T01:06:13;100547.34;;;17.76;100.00
51876;BME280;34054;52.100;5.116;2023-07-02T01:06:45;100551.81;;;17.72;100.00
51876;BME280;34054;52.100;5.116;2023-07-02T01:07:17;100546.81;;;17.74;100.00
51876;BME280;34054;52.100;5.116;2023-07-02T01:07:49;100546.28;;;17.63;100.00
51876;BME280;34054;52.100;5.116;2023-07-02T01:08:21;100546.78;;;17.65;100.00
51876;BME280;34054;52.100;5.116;2023-07-02T01:08:57;100533.53;;;17.67;100.00
51876;BME280;34054;52.100;5.116;2023-07-02T01:09:30;100542.88;;;17.66;100.00
51876;BME280;34054;52.100;5.116;2023-07-02T01:10:03;100540.97;;;17.67;100.00
51876;BME280;34054;52.100;5.116;2023-07-02T01:10:37;100549.19;;;17.67;100.00
51876;BME280;34054;52.100;5.116;2023-07-02T01:11:08;100546.13;;;17.68;100.00
51876;BME280;34054;52.100;5.116;2023-07-02T01:11:43;100545.94;;;17.65;100.00
51876;BME280;34054;52.100;5.116;2023-07-02T01:12:18;100547.38;;;17.62;100.00
51876;BME280;34054;52.100;5.116;2023-07-02T01:12:52;100536.28;;;17.67;100.00
51876;BME280;34054;52.100;5.116;2023-07-02T01:13:26;100542.09;;;17.66;100.00
51876;BME280;34054;52.100;5.116;2023-07-02T01:14:02;100542.78;;;17.71;100.00
51876;BME280;34054;52.100;5.116;2023-07-02T01:14:38;100546.97;;;17.69;100.00
51876;BME280;34054;52.100;5.116;2023-07-02T01:15:13;100551.94;;;17.67;100.00
51876;BME280;34054;52.100;5.116;2023-07-02T01:15:46;100545.94;;;17.65;100.00
51876;BME280;34054;52.100;5.116;2023-07-02T01:16:20;100543.72;;;17.67;100.00
51876;BME280;34054;52.100;5.116;2023-07-02T01:16:55;100540.13;;;17.66;100.00
51876;BME280;34054;52.100;5.116;2023-07-02T01:17:29;100539.16;;;17.62;100.00
51876;BME280;34054;52.100;5.116;2023-07-02T01:18:08;100550.81;;;17.68;100.00
51876;BME280;34054;52.100;5.116;2023-07-02T01:18:42;100547.38;;;17.62;100.00
51876;BME280;34054;52.100;5.116;2023-07-02T01:19:18;100544.66;;;17.62;100.00
51876;BME280;34054;52.100;5.116;2023-07-02T01:19:58;100540.78;;;17.63;100.00
51876;BME280;34054;52.100;5.116;2023-07-02T01:20:33;100546.13;;;17.68;100.00
51876;BME280;34054;52.100;5.116;2023-07-02T01:21:07;100545.84;;;17.70;100.00
51876;BME280;34054;52.100;5.116;2023-07-02T01:21:38;100550.81;;;17.68;100.00
51876;BME280;34054;52.100;5.116;2023-07-02T01:22:11;100550.00;;;17.67;100.00
51876;BME280;34054;52.100;5.116;2023-07-02T01:22:44;100545.00;;;17.69;100.00
51876;BME280;34054;52.100;5.116;2023-07-02T01:23:19;100553.88;;;17.66;100.00
51876;BME280;34054;52.100;5.116;2023-07-02T01:23:52;100552.69;;;17.58;100.00
51876;BME280;34054;52.100;5.116;2023-07-02T01:24:24;100554.44;;;17.54;100.00
51876;BME280;34054;52.100;5.116;2023-07-02T01:24:57;100552.81;;;17.53;100.00
51876;BME280;34054;52.100;5.116;2023-07-02T01:25:29;100558.59;;;17.52;100.00
51876;BME280;34054;52.100;5.116;2023-07-02T01:26:00;100553.13;;;17.52;100.00
51876;BME280;34054;52.100;5.116;2023-07-02T01:26:34;100559.91;;;17.54;100.00
51876;BME280;34054;52.100;5.116;2023-07-02T01:27:06;100550.06;;;17.53;100.00
51876;BME280;34054;52.100;5.116;2023-07-02T01:27:38;100552.31;;;17.51;100.00
51876;BME280;34054;52.100;5.116;2023-07-02T01:28:11;100547.63;;;17.52;100.00
51876;BME280;34054;52.100;5.116;2023-07-02T01:28:44;100553.94;;;17.52;100.00
51876;BME280;34054;52.100;5.116;2023-07-02T01:29:18;100548.56;;;17.47;100.00
51876;BME280;34054;52.100;5.116;2023-07-02T01:29:52;100551.00;;;17.49;100.00
51876;BME280;34054;52.100;5.116;2023-07-02T01:30:24;100540.50;;;17.51;100.00
51876;BME280;34054;52.100;5.116;2023-07-02T01:30:56;100545.38;;;17.54;100.00
51876;BME280;34054;52.100;5.116;2023-07-02T01:31:29;100538.88;;;17.50;100.00
51876;BME280;34054;52.100;5.116;2023-07-02T01:32:01;100544.78;;;17.57;100.00
51876;BME280;34054;52.100;5.116;2023-07-02T01:32:33;100545.38;;;17.54;100.00
51876;BME280;34054;52.100;5.116;2023-07-02T01:33:05;100542.31;;;17.55;100.00
51876;BME280;34054;52.100;5.116;2023-07-02T01:33:37;100533.09;;;17.51;100.00
51876;BME280;34054;52.100;5.116;2023-07-02T01:34:09;100541.75;;;17.45;100.00
51876;BME280;34054;52.100;5.116;2023-07-02T01:34:42;100536.09;;;17.41;100.00
51876;BME280;34054;52.100;5.116;2023-07-02T01:35:16;100542.19;;;17.38;100.00
51876;BME280;34054;52.100;5.116;2023-07-02T01:35:48;100534.88;;;17.33;100.00
51876;BME280;34054;52.100;5.116;2023-07-02T01:36:20;100540.88;;;17.35;100.00
51876;BME280;34054;52.100;5.116;2023-07-02T01:36:52;100544.31;;;17.41;100.00
51876;BME280;34054;52.100;5.116;2023-07-02T01:37:24;100540.47;;;17.42;100.00
51876;BME280;34054;52.100;5.116;2023-07-02T01:37:55;100547.06;;;17.41;100.00
51876;BME280;34054;52.100;5.116;2023-07-02T01:38:28;100546.25;;;17.40;100.00
51876;BME280;34054;52.100;5.116;2023-07-02T01:38:59;100529.38;;;17.33;100.00
51876;BME280;34054;52.100;5.116;2023-07-02T01:39:32;100529.00;;;17.26;100.00
51876;BME280;34054;52.100;5.116;2023-07-02T01:40:04;100547.63;;;17.29;100.00
51876;BME280;34054;52.100;5.116;2023-07-02T01:40:39;100550.97;;;17.26;100.00
51876;BME280;34054;52.100;5.116;2023-07-02T01:41:10;100543.66;;;17.21;100.00
51876;BME280;34054;52.100;5.116;2023-07-02T01:41:50;100544.91;;;17.15;100.00
51876;BME280;34054;52.100;5.116;2023-07-02T01:42:23;100543.28;;;17.14;100.00
51876;BME280;34054;52.100;5.116;2023-07-02T01:42:55;100545.41;;;17.17;100.00
51876;BME280;34054;52.100;5.116;2023-07-02T01:43:27;100547.03;;;17.18;100.00
51876;BME280;34054;52.100;5.116;2023-07-02T01:43:59;100553.84;;;17.21;100.00
51876;BME280;34054;52.100;5.116;2023-07-02T01:44:31;100543.16;;;17.19;100.00
51876;BME280;34054;52.100;5.116;2023-07-02T01:45:03;100551.47;;;17.28;100.00
51876;BME280;34054;52.100;5.116;2023-07-02T01:45:37;100537.00;;;17.14;100.00
51876;BME280;34054;52.100;5.116;2023-07-02T01:46:09;100550.34;;;17.29;100.00
51876;BME280;34054;52.100;5.116;2023-07-02T01:46:40;100559.09;;;17.31;100.00
51876;BME280;34054;52.100;5.116;2023-07-02T01:47:13;100543.84;;;17.25;100.00
51876;BME280;34054;52.100;5.116;2023-07-02T01:47:46;100547.09;;;17.27;100.00
51876;BME280;34054;52.100;5.116;2023-07-02T01:48:18;100554.59;;;17.35;100.00
51876;BME280;34054;52.100;5.116;2023-07-02T01:48:51;100561.91;;;17.40;100.00
51876;BME280;34054;52.100;5.116;2023-07-02T01:49:23;100558.03;;;17.41;100.00
51876;BME280;34054;52.100;5.116;2023-07-02T01:49:54;100556.94;;;17.42;100.00
51876;BME280;34054;52.100;5.116;2023-07-02T01:50:28;100554.78;;;17.39;100.00
51876;BME280;34054;52.100;5.116;2023-07-02T01:51:00;100561.59;;;17.41;100.00
51876;BME280;34054;52.100;5.116;2023-07-02T01:51:32;100557.72;;;17.42;100.00
51876;BME280;34054;52.100;5.116;2023-07-02T01:52:06;100539.56;;;17.33;100.00
51876;BME280;34054;52.100;5.116;2023-07-02T01:52:38;100539.06;;;17.31;100.00
51876;BME280;34054;52.100;5.116;2023-07-02T01:53:09;100551.06;;;17.35;100.00
51876;BME280;34054;52.100;5.116;2023-07-02T01:53:42;100552.97;;;17.34;100.00
51876;BME280;34054;52.100;5.116;2023-07-02T01:54:13;100556.75;;;17.38;100.00
51876;BME280;34054;52.100;5.116;2023-07-02T01:54:45;100552.75;;;17.45;100.00
51876;BME280;34054;52.100;5.116;2023-07-02T01:55:17;100550.31;;;17.43;100.00
51876;BME280;34054;52.100;5.116;2023-07-02T01:55:50;100541.06;;;17.39;100.00
51876;BME280;34054;52.100;5.116;2023-07-02T01:56:21;100551.13;;;17.43;100.00
51876;BME280;34054;52.100;5.116;2023-07-02T01:56:53;100550.00;;;17.45;100.00
51876;BME280;34054;52.100;5.116;2023-07-02T01:57:26;100552.25;;;17.42;100.00
51876;BME280;34054;52.100;5.116;2023-07-02T01:57:58;100551.06;;;17.35;100.00
51876;BME280;34054;52.100;5.116;2023-07-02T01:58:29;100551.72;;;17.40;100.00
51876;BME280;34054;52.100;5.116;2023-07-02T01:59:02;100552.88;;;17.39;100.00
51876;BME280;34054;52.100;5.116;2023-07-02T01:59:34;100557.47;;;17.30;100.00
51876;BME280;34054;52.100;5.116;2023-07-02T02:00:07;100569.59;;;17.15;100.00
51876;BME280;34054;52.100;5.116;2023-07-02T02:00:41;100554.38;;;17.09;100.00
51876;BME280;34054;52.100;5.116;2023-07-02T02:01:12;100544.81;;;17.06;100.00
51876;BME280;34054;52.100;5.116;2023-07-02T02:01:44;100553.16;;;17.01;100.00
51876;BME280;34054;52.100;5.116;2023-07-02T02:02:15;100556.69;;;17.02;100.00
51876;BME280;34054;52.100;5.116;2023-07-02T02:02:48;100547.16;;;16.99;100.00
51876;BME280;34054;52.100;5.116;2023-07-02T02:03:20;100549.91;;;16.99;100.00
51876;BME280;34054;52.100;5.116;2023-07-02T02:03:51;100555.19;;;16.95;100.00
51876;BME280;34054;52.100;5.116;2023-07-02T02:04:24;100553.97;;;16.88;100.00
51876;BME280;34054;52.100;5.116;2023-07-02T02:04:55;100558.22;;;16.80;100.00
51876;BME280;34054;52.100;5.116;2023-07-02T02:05:29;100556.91;;;16.77;100.00
51876;BME280;34054;52.100;5.116;2023-07-02T02:06:01;100548.78;;;16.86;100.00
51876;BME280;34054;52.100;5.116;2023-07-02T02:06:33;100553.06;;;16.78;100.00
51876;BME280;34054;52.100;5.116;2023-07-02T02:07:05;100554.69;;;16.79;100.00
51876;BME280;34054;52.100;5.116;2023-07-02T02:07:38;100557.91;;;16.68;100.00
51876;BME280;34054;52.100;5.116;2023-07-02T02:08:09;100555.09;;;16.59;100.00
51876;BME280;34054;52.100;5.116;2023-07-02T02:08:41;100562.19;;;16.60;100.00
51876;BME280;34054;52.100;5.116;2023-07-02T02:09:13;100555.09;;;16.59;100.00
51876;BME280;34054;52.100;5.116;2023-07-02T02:09:45;100551.13;;;16.51;100.00
51876;BME280;34054;52.100;5.116;2023-07-02T02:10:17;100561.59;;;16.49;100.00
51876;BME280;34054;52.100;5.116;2023-07-02T02:10:48;100559.66;;;16.49;100.00
51876;BME280;34054;52.100;5.116;2023-07-02T02:11:21;100553.84;;;16.51;100.00
51876;BME280;34054;52.100;5.116;2023-07-02T02:11:53;100558.84;;;16.49;100.00
51876;BME280;34054;52.100;5.116;2023-07-02T02:12:24;100555.91;;;16.45;100.00
51876;BME280;34054;52.100;5.116;2023-07-02T02:12:56;100557.03;;;16.44;100.00
51876;BME280;34054;52.100;5.116;2023-07-02T02:13:29;100556.69;;;16.32;100.00
51876;BME280;34054;52.100;5.116;2023-07-02T02:14:00;100549.50;;;16.36;100.00
51876;BME280;34054;52.100;5.116;2023-07-02T02:14:32;100550.63;;;16.35;100.00
51876;BME280;34054;52.100;5.116;2023-07-02T02:15:04;100555.47;;;16.38;100.00
51876;BME280;34054;52.100;5.116;2023-07-02T02:15:38;100559.97;;;16.48;100.00
51876;BME280;34054;52.100;5.116;2023-07-02T02:16:09;100557.03;;;16.44;100.00
51876;BME280;34054;52.100;5.116;2023-07-02T02:16:41;100560.53;;;16.31;100.00
51876;BME280;34054;52.100;5.116;2023-07-02T02:17:16;100556.50;;;16.42;100.00
51876;BME280;34054;52.100;5.116;2023-07-02T02:17:49;100554.56;;;16.43;100.00
51876;BME280;34054;52.100;5.116;2023-07-02T02:18:20;100553.34;;;16.35;100.00
51876;BME280;34054;52.100;5.116;2023-07-02T02:18:52;100554.34;;;16.39;100.00
51876;BME280;34054;52.100;5.116;2023-07-02T02:19:24;100554.06;;;16.41;100.00
51876;BME280;34054;52.100;5.116;2023-07-02T02:19:57;100562.50;;;16.44;100.00
51876;BME280;34054;52.100;5.116;2023-07-02T02:20:30;100548.78;;;16.44;100.00
51876;BME280;34054;52.100;5.116;2023-07-02T02:21:02;100556.31;;;16.53;100.00
51876;BME280;34054;52.100;5.116;2023-07-02T02:21:35;100558.94;;;16.58;100.00
51876;BME280;34054;52.100;5.116;2023-07-02T02:22:06;100562.50;;;16.58;100.00
51876;BME280;34054;52.100;5.116;2023-07-02T02:22:38;100563.22;;;16.50;100.00
51876;BME280;34054;52.100;5.116;2023-07-02T02:23:09;100568.47;;;16.46;100.00
51876;BME280;34054;52.100;5.116;2023-07-02T02:23:42;100559.97;;;16.48;100.00
51876;BME280;34054;52.100;5.116;2023-07-02T02:24:14;100561.97;;;16.42;100.00
51876;BME280;34054;52.100;5.116;2023-07-02T02:24:46;100565.53;;;16.43;100.00
51876;BME280;34054;52.100;5.116;2023-07-02T02:25:17;100562.31;;;16.41;100.00
51876;BME280;34054;52.100;5.116;2023-07-02T02:25:50;100564.59;;;16.33;100.00
51876;BME280;34054;52.100;5.116;2023-07-02T02:26:22;100563.59;;;16.29;100.00
51876;BME280;34054;52.100;5.116;2023-07-02T02:26:56;100565.44;;;16.34;100.00
51876;BME280;34054;52.100;5.116;2023-07-02T02:27:29;100569.47;;;16.37;100.00
51876;BME280;34054;52.100;5.116;2023-07-02T02:28:00;100565.94;;;16.36;100.00
51876;BME280;34054;52.100;5.116;2023-07-02T02:28:32;100570.91;;;16.34;100.00
51876;BME280;34054;52.100;5.116;2023-07-02T02:29:04;100573.06;;;16.37;100.00
51876;BME280;34054;52.100;5.116;2023-07-02T02:29:36;100565.44;;;16.34;100.00
51876;BME280;34054;52.100;5.116;2023-07-02T02:30:08;100563.78;;;16.19;100.00
51876;BME280;34054;52.100;5.116;2023-07-02T02:30:40;100555.25;;;16.07;100.00
51876;BME280;34054;52.100;5.116;2023-07-02T02:31:13;100563.16;;;16.08;100.00
51876;BME280;34054;52.100;5.116;2023-07-02T02:31:44;100561.50;;;16.07;100.00
51876;BME280;34054;52.100;5.116;2023-07-02T02:32:16;100558.66;;;15.98;100.00
51876;BME280;34054;52.100;5.116;2023-07-02T02:32:50;100558.06;;;16.01;100.00
51876;BME280;34054;52.100;5.116;2023-07-02T02:33:22;100566.69;;;15.95;100.00
51876;BME280;34054;52.100;5.116;2023-07-02T02:33:53;100556.91;;;15.89;100.00
51876;BME280;34054;52.100;5.116;2023-07-02T02:34:26;100560.69;;;15.93;100.00
51876;BME280;34054;52.100;5.116;2023-07-02T02:34:59;100570.81;;;15.92;100.00
51876;BME280;34054;52.100;5.116;2023-07-02T02:35:33;100567.47;;;15.95;100.00
51876;BME280;34054;52.100;5.116;2023-07-02T02:36:05;100566.88;;;15.98;100.00
51876;BME280;34054;52.100;5.116;2023-07-02T02:36:37;100571.53;;;15.98;100.00
51876;BME280;34054;52.100;5.116;2023-07-02T02:37:09;100566.69;;;15.95;100.00
51876;BME280;34054;52.100;5.116;2023-07-02T02:37:41;100572.88;;;15.81;100.00
51876;BME280;34054;52.100;5.116;2023-07-02T02:38:13;100558.53;;;15.70;100.00
51876;BME280;34054;52.100;5.116;2023-07-02T02:38:45;100569.28;;;15.67;100.00
51876;BME280;34054;52.100;5.116;2023-07-02T02:39:18;100562.41;;;15.50;100.00
51876;BME280;34054;52.100;5.116;2023-07-02T02:39:50;100576.91;;;15.51;100.00
51876;BME280;34054;52.100;5.116;2023-07-02T02:40:21;100565.44;;;15.49;100.00
51876;BME280;34054;52.100;5.116;2023-07-02T02:40:54;100562.09;;;15.52;100.00
51876;BME280;34054;52.100;5.116;2023-07-02T02:41:25;100572.16;;;15.57;100.00
51876;BME280;34054;52.100;5.116;2023-07-02T02:41:57;100577.78;;;15.46;100.00
51876;BME280;34054;52.100;5.116;2023-07-02T02:42:30;100578.44;;;15.38;100.00
51876;BME280;34054;52.100;5.116;2023-07-02T02:43:01;100579.78;;;15.41;100.00
51876;BME280;34054;52.100;5.116;2023-07-02T02:43:33;100578.19;;;15.39;100.00
51876;BME280;34054;52.100;5.116;2023-07-02T02:44:05;100582.72;;;15.44;100.00
51876;BME280;34054;52.100;5.116;2023-07-02T02:44:37;100579.09;;;15.49;100.00
51876;BME280;34054;52.100;5.116;2023-07-02T02:45:10;100579.84;;;15.54;100.00
51876;BME280;34054;52.100;5.116;2023-07-02T02:45:43;100578.69;;;15.61;100.00
51876;BME280;34054;52.100;5.116;2023-07-02T02:46:19;100571.78;;;15.63;100.00
51876;BME280;34054;52.100;5.116;2023-07-02T02:46:52;100570.50;;;15.75;100.00
51876;BME280;34054;52.100;5.116;2023-07-02T02:47:24;100568.91;;;15.74;100.00
51876;BME280;34054;52.100;5.116;2023-07-02T02:47:56;100578.44;;;15.76;100.00
51876;BME280;34054;52.100;5.116;2023-07-02T02:48:27;100579.97;;;15.82;100.00